Time;durP1;ratioP1;P1;durP2;ratioP2;P2;SDS_P1;SDS_P2;PMS_P1;PMS_P2;Temp;Humidity;BMP_temperature;BMP_pressure;BME280_temperature;BME280_humidity;BME280_pressure;Samples;Min_cycle;Max_cycle;Signal;HPM_P1;HPM_P2
2021/03/09 00:00:07;;;;;;;52.05;26.38;;;;;;;-0.78;62.45;100650.88;5088903;28;20047;-74
2021/03/09 00:02:35;;;;;;;43.13;22.35;;;;;;;-0.79;62.62;100652.63;5102862;28;20659;-74
2021/03/09 00:05:01;;;;;;;47.42;25.98;;;;;;;-0.78;62.29;100650.88;5087439;28;20108;-73
2021/03/09 00:07:31;;;;;;;42.22;22.25;;;;;;;-0.78;62.26;100650.88;5084105;28;20056;-73
2021/03/09 00:09:57;;;;;;;52.50;24.55;;;;;;;-0.79;62.48;100652.63;5103943;28;20075;-72
2021/03/09 00:12:27;;;;;;;52.72;26.20;;;;;;;-0.82;62.79;100652.66;5104934;28;20588;-73
2021/03/09 00:14:54;;;;;;;53.88;25.48;;;;;;;-0.83;62.74;100650.97;5106276;28;20043;-72
2021/03/09 00:17:22;;;;;;;64.20;28.92;;;;;;;-0.84;62.66;100654.44;5109996;28;20051;-73
2021/03/09 00:19:48;;;;;;;63.03;30.65;;;;;;;-0.85;62.87;100659.66;5112425;28;20059;-73
2021/03/09 00:22:14;;;;;;;67.85;35.45;;;;;;;-0.87;62.72;100659.69;5107670;28;20380;-74
2021/03/09 00:24:41;;;;;;;73.50;39.47;;;;;;;-0.89;63.08;100665.78;5106110;28;20044;-71
2021/03/09 00:27:09;;;;;;;70.53;36.60;;;;;;;-0.91;63.04;100663.22;5091573;28;20050;-72
2021/03/09 00:29:36;;;;;;;66.65;35.30;;;;;;;-0.92;63.22;100652.88;5108120;28;20054;-73
2021/03/09 00:32:06;;;;;;;87.22;44.72;;;;;;;-0.95;63.16;100656.38;5108338;28;20052;-72
2021/03/09 00:34:33;;;;;;;94.53;51.05;;;;;;;-0.97;63.19;100661.59;5096605;28;20048;-73
2021/03/09 00:37:00;;;;;;;78.82;44.20;;;;;;;-1.00;63.25;100666.84;5087447;28;20491;-77
2021/03/09 00:39:26;;;;;;;62.50;31.02;;;;;;;-1.01;63.09;100670.31;5070442;28;20469;-71
2021/03/09 00:41:53;;;;;;;51.97;29.83;;;;;;;-1.01;63.29;100669.44;5088054;28;20159;-72
2021/03/09 00:44:20;;;;;;;115.40;49.83;;;;;;;-1.04;63.06;100678.16;5049853;28;20100;-73
2021/03/09 00:46:48;;;;;;;61.53;30.52;;;;;;;-1.07;62.85;100677.34;5088388;28;20044;-74
2021/03/09 00:49:14;;;;;;;53.20;26.70;;;;;;;-1.25;63.14;100681.13;5088636;28;20560;-72
2021/03/09 00:51:42;;;;;;;59.10;29.75;;;;;;;-1.33;63.40;100680.38;5088016;28;20059;-73
2021/03/09 00:54:09;;;;;;;69.60;30.83;;;;;;;-1.39;63.25;100670.97;5086462;28;20179;-73
2021/03/09 00:56:35;;;;;;;66.15;32.78;;;;;;;-1.46;63.27;100683.19;5087669;28;20097;-72
2021/03/09 00:59:03;;;;;;;63.15;31.30;;;;;;;-1.52;63.22;100672.91;5087671;28;20044;-73
2021/03/09 01:01:30;;;;;;;75.63;34.92;;;;;;;-1.57;63.28;100674.72;5069385;28;20103;-74
2021/03/09 01:03:56;;;;;;;74.13;36.20;;;;;;;-1.61;63.31;100673.06;5087111;28;20047;-73
2021/03/09 01:06:23;;;;;;;67.85;34.20;;;;;;;-1.63;63.43;100674.81;5069878;28;20052;-73
2021/03/09 01:08:51;;;;;;;62.03;29.70;;;;;;;-1.66;63.27;100669.69;5071472;28;20051;-74
2021/03/09 01:11:19;;;;;;;59.42;28.92;;;;;;;-1.66;63.40;100667.09;5088623;28;20612;-73
2021/03/09 01:13:46;;;;;;;167.85;67.07;;;;;;;-1.67;63.49;100674.00;5068497;28;20055;-74
2021/03/09 01:16:12;;;;;;;232.95;93.38;;;;;;;-1.71;63.81;100663.72;5087331;28;20070;-73
2021/03/09 01:18:39;;;;;;;103.97;38.45;;;;;;;-1.67;63.75;100667.97;5088401;28;20067;-72
2021/03/09 01:21:05;;;;;;;85.72;35.17;;;;;;;-1.70;63.65;100660.25;5088895;28;20616;-75
2021/03/09 01:23:32;;;;;;;90.35;35.83;;;;;;;-1.71;63.51;100659.41;5089890;28;20088;-72
2021/03/09 01:25:59;;;;;;;83.68;33.30;;;;;;;-1.71;63.77;100653.34;5086725;28;20560;-73
2021/03/09 01:28:26;;;;;;;90.90;37.55;;;;;;;-1.74;63.38;100660.28;5087494;28;20483;-74
2021/03/09 01:30:53;;;;;;;92.32;39.78;;;;;;;-1.77;63.52;100655.16;5087671;28;20492;-73
2021/03/09 01:33:19;;;;;;;90.65;37.35;;;;;;;-1.81;63.42;100653.50;5087546;28;20380;-73
2021/03/09 01:35:46;;;;;;;95.53;39.38;;;;;;;-1.85;63.53;100657.00;5088475;28;20048;-73
2021/03/09 01:38:12;;;;;;;100.05;41.95;;;;;;;-1.88;63.22;100659.66;5088956;28;20044;-72
2021/03/09 01:40:39;;;;;;;97.57;43.70;;;;;;;-1.90;63.18;100666.59;5088246;28;20048;-73
2021/03/09 01:43:06;;;;;;;90.75;42.95;;;;;;;-1.93;63.09;100657.13;5088504;28;20043;-72
2021/03/09 01:45:34;;;;;;;91.63;39.92;;;;;;;-1.99;63.32;100656.38;5087623;28;20048;-73
2021/03/09 01:48:03;;;;;;;92.60;39.30;;;;;;;-2.03;63.18;100655.56;5086719;28;20055;-74
2021/03/09 01:50:33;;;;;;;78.43;38.20;;;;;;;-2.06;63.35;100655.59;5086794;28;20070;-73
2021/03/09 01:53:03;;;;;;;53.08;26.50;;;;;;;-2.05;63.31;100649.53;5086507;28;20071;-74
2021/03/09 01:55:29;;;;;;;52.17;26.23;;;;;;;-2.04;63.49;100656.41;5085970;28;20101;-75
2021/03/09 01:57:56;;;;;;;55.50;31.33;;;;;;;-1.99;63.61;100659.78;5088807;28;20089;-73
2021/03/09 02:00:24;;;;;;;66.10;38.63;;;;;;;-1.96;64.01;100657.16;5087360;28;20052;-72
2021/03/09 02:02:50;;;;;;;183.35;78.70;;;;;;;-1.94;64.20;100651.97;5087164;28;20567;-74
2021/03/09 02:05:17;;;;;;;661.42;321.00;;;;;;;-1.94;64.18;100644.22;5087404;28;20632;-73
2021/03/09 02:07:43;;;;;;;598.40;270.38;;;;;;;-1.94;64.42;100649.38;5086248;28;20687;-74
2021/03/09 02:10:14;;;;;;;287.50;109.07;;;;;;;-1.93;64.61;100640.72;5089111;28;20047;-74
2021/03/09 02:12:52;;;;;;;231.43;92.28;;;;;;;-1.93;64.76;100648.50;5087518;28;20631;-73
2021/03/09 02:15:28;;;;;;;136.82;55.80;;;;;;;-1.93;64.69;100651.97;5086402;28;20044;-75
2021/03/09 02:18:00;;;;;;;83.03;37.00;;;;;;;-1.91;64.65;100644.16;5086361;28;20047;-73
2021/03/09 02:20:56;;;;;;;59.42;28.15;;;;;;;-1.85;64.57;100646.66;5086686;28;20044;-73
2021/03/09 02:24:13;;;;;;;61.95;29.88;;;;;;;-1.78;64.11;100650.03;5087020;28;20101;-74
2021/03/09 02:26:55;;;;;;;75.00;31.48;;;;;;;-1.77;63.89;100651.72;5003521;28;20050;-76
2021/03/09 02:29:46;;;;;;;81.88;32.78;;;;;;;-1.77;63.68;100652.56;5003515;28;20240;-74
2021/03/09 02:32:16;;;;;;;78.45;31.90;;;;;;;-1.76;63.39;100653.44;5003434;28;20133;-72
2021/03/09 02:34:48;;;;;;;75.57;33.38;;;;;;;-1.72;63.32;100649.91;5003146;28;20058;-74
2021/03/09 02:37:17;;;;;;;65.10;29.95;;;;;;;-1.71;63.31;100651.63;5001849;28;20100;-72
2021/03/09 02:39:46;;;;;;;69.65;31.88;;;;;;;-1.70;63.25;100649.91;5003982;28;20048;-71
2021/03/09 02:42:21;;;;;;;68.82;31.33;;;;;;;-1.71;63.49;100661.13;5004550;28;20049;-74
2021/03/09 02:44:52;;;;;;;64.95;29.52;;;;;;;-1.75;63.10;100663.78;5003398;28;20049;-72
2021/03/09 02:47:21;;;;;;;65.68;30.42;;;;;;;-1.75;63.08;100665.50;5003787;28;20068;-72
2021/03/09 02:49:49;;;;;;;61.00;31.02;;;;;;;-1.75;62.84;100663.78;5002881;28;20534;-72
2021/03/09 02:52:19;;;;;;;74.90;33.72;;;;;;;-1.73;62.70;100669.78;5002343;28;20413;-73
2021/03/09 02:54:47;;;;;;;84.60;35.33;;;;;;;-1.73;62.82;100662.00;5002286;28;20476;-71
2021/03/09 02:57:15;;;;;;;72.70;31.52;;;;;;;-1.71;62.67;100663.72;5006050;28;20061;-72
2021/03/09 02:59:42;;;;;;;77.28;32.97;;;;;;;-1.73;62.64;100663.72;5003083;28;20084;-73
2021/03/09 03:02:12;;;;;;;64.68;29.25;;;;;;;-1.77;62.87;100664.66;5010879;28;20046;-72
2021/03/09 03:04:42;;;;;;;61.47;24.13;;;;;;;-1.83;62.87;100670.78;5085579;28;20110;-73
2021/03/09 03:07:10;;;;;;;63.70;25.90;;;;;;;-1.89;62.80;100668.31;5085726;28;20052;-73
2021/03/09 03:09:39;;;;;;;63.97;28.30;;;;;;;-1.96;62.80;100669.28;5085807;28;20093;-72
2021/03/09 03:12:06;;;;;;;59.17;29.73;;;;;;;-2.05;62.95;100666.78;5086038;28;20040;-73
2021/03/09 03:14:35;;;;;;;64.75;35.45;;;;;;;-2.12;63.15;100671.22;5086004;28;20083;-73
2021/03/09 03:17:03;;;;;;;87.22;39.45;;;;;;;-2.17;63.09;100663.50;5089971;28;20048;-72
2021/03/09 03:19:33;;;;;;;71.88;33.08;;;;;;;-2.21;63.30;100659.25;5085340;28;20047;-71
2021/03/09 03:22:00;;;;;;;68.82;32.47;;;;;;;-2.22;63.22;100667.03;5085805;28;20044;-71
2021/03/09 03:24:28;;;;;;;77.35;33.88;;;;;;;-2.25;63.24;100662.75;5084361;28;20078;-72
2021/03/09 03:26:55;;;;;;;60.95;31.85;;;;;;;-2.28;63.35;100664.53;5084761;28;20499;-72
2021/03/09 03:29:23;;;;;;;64.07;31.63;;;;;;;-2.32;63.32;100661.97;5085955;28;20040;-72
2021/03/09 03:31:50;;;;;;;65.78;30.33;;;;;;;-2.33;63.42;100667.16;5086597;28;20060;-73
2021/03/09 03:34:17;;;;;;;81.05;31.13;;;;;;;-2.32;63.50;100661.97;5084480;28;20495;-71
2021/03/09 03:36:45;;;;;;;61.83;29.48;;;;;;;-2.32;63.33;100663.72;5084948;28;20048;-71
2021/03/09 03:39:11;;;;;;;64.78;30.45;;;;;;;-2.33;63.27;100660.25;5085287;28;20050;-73
2021/03/09 03:41:39;;;;;;;65.82;29.58;;;;;;;-2.36;63.29;100657.72;5084787;28;20070;-72
2021/03/09 03:44:06;;;;;;;63.05;29.20;;;;;;;-2.38;63.26;100663.78;5086036;28;20051;-73
2021/03/09 03:46:32;;;;;;;68.25;28.17;;;;;;;-2.39;63.17;100664.66;5086118;28;20119;-73
2021/03/09 03:49:00;;;;;;;62.17;29.85;;;;;;;-2.39;63.11;100667.25;5069730;28;20675;-73
2021/03/09 03:51:32;;;;;;;70.72;33.40;;;;;;;-2.37;63.19;100665.50;5089168;28;20044;-74
2021/03/09 03:54:11;;;;;;;71.95;32.47;;;;;;;-2.37;63.20;100652.56;5088687;28;20048;-72
2021/03/09 03:56:42;;;;;;;56.55;29.88;;;;;;;-2.35;62.86;100658.56;5088814;28;20079;-72
2021/03/09 03:59:12;;;;;;;65.15;30.50;;;;;;;-2.33;62.90;100656.81;5091865;28;20044;-69
2021/03/09 04:01:40;;;;;;;51.50;25.95;;;;;;;-2.31;63.08;100662.81;5090752;28;20104;-72
2021/03/09 04:04:10;;;;;;;54.00;26.13;;;;;;;-2.31;63.12;100662.81;5089165;28;20048;-73
2021/03/09 04:06:38;;;;;;;49.33;24.85;;;;;;;-2.31;62.87;100658.50;5090107;28;20051;-73
2021/03/09 04:09:07;;;;;;;56.28;26.77;;;;;;;-2.26;62.74;100647.25;5088879;28;20040;-72
2021/03/09 04:11:36;;;;;;;58.50;24.92;;;;;;;-2.24;62.70;100663.59;5088635;28;20494;-74
2021/03/09 04:14:03;;;;;;;57.92;26.48;;;;;;;-2.23;62.67;100663.59;5091756;28;20108;-73
2021/03/09 04:16:32;;;;;;;41.40;21.05;;;;;;;-2.18;62.62;100664.38;5089246;28;20036;-72
2021/03/09 04:19:01;;;;;;;47.38;25.38;;;;;;;-2.10;62.35;100666.03;5090693;28;20842;-70
2021/03/09 04:21:30;;;;;;;53.17;25.67;;;;;;;-2.06;62.24;100670.28;5089608;28;20040;-71
2021/03/09 04:23:59;;;;;;;40.05;22.08;;;;;;;-1.98;61.84;100663.22;5088385;28;20044;-71
2021/03/09 04:26:29;;;;;;;42.80;21.95;;;;;;;-1.87;61.89;100660.50;5087887;28;20399;-73
2021/03/09 04:28:57;;;;;;;46.22;23.65;;;;;;;-1.80;61.62;100663.00;5090500;28;20131;-74
2021/03/09 04:31:25;;;;;;;42.05;24.10;;;;;;;-1.71;61.63;100668.88;5070632;28;20083;-74
2021/03/09 04:33:52;;;;;;;45.90;22.73;;;;;;;-1.62;61.53;100661.84;5089178;28;20044;-73
2021/03/09 04:36:20;;;;;;;53.38;25.30;;;;;;;-1.54;61.57;100665.16;5054321;28;20060;-72
2021/03/09 04:38:48;;;;;;;44.15;21.63;;;;;;;-1.49;61.45;100667.69;5087893;28;20170;-73
2021/03/09 04:41:15;;;;;;;39.45;21.95;;;;;;;-1.42;61.24;100664.13;5090874;28;20048;-72
2021/03/09 04:43:43;;;;;;;42.40;20.20;;;;;;;-1.35;61.39;100657.09;5088902;28;20532;-72
2021/03/09 04:46:10;;;;;;;42.42;20.63;;;;;;;-1.29;61.10;100659.56;5088712;28;20066;-71
2021/03/09 04:48:38;;;;;;;39.95;20.55;;;;;;;-1.25;61.22;100665.56;5072115;28;20449;-74
2021/03/09 04:51:10;;;;;;;41.63;21.75;;;;;;;-1.20;61.23;100663.75;5088546;28;20079;-73
2021/03/09 04:53:36;;;;;;;38.88;20.90;;;;;;;-1.19;61.12;100660.25;5089347;28;20048;-73
2021/03/09 04:56:03;;;;;;;43.40;21.45;;;;;;;-1.17;60.96;100663.69;5091069;28;20046;-75
2021/03/09 04:58:30;;;;;;;59.50;22.60;;;;;;;-1.16;61.17;100665.41;5102079;28;20308;-72
2021/03/09 05:00:57;;;;;;;43.17;20.40;;;;;;;-1.13;60.98;100661.88;5108947;28;20054;-74
2021/03/09 05:03:24;;;;;;;32.33;15.88;;;;;;;-1.11;60.84;100661.00;5101042;28;20046;-73
2021/03/09 05:05:51;;;;;;;36.90;17.88;;;;;;;-1.08;60.70;100668.72;5098931;28;20051;-71
2021/03/09 05:08:17;;;;;;;41.13;20.45;;;;;;;-1.07;60.99;100662.63;5109870;28;20044;-73
2021/03/09 05:10:44;;;;;;;41.45;20.33;;;;;;;-1.06;60.88;100656.59;5109484;28;20020;-74
2021/03/09 05:13:10;;;;;;;35.53;19.55;;;;;;;-1.01;61.04;100669.44;5097708;28;20052;-73
2021/03/09 05:15:37;;;;;;;39.20;20.30;;;;;;;-1.01;61.02;100672.91;5090655;28;20048;-73
2021/03/09 05:18:04;;;;;;;40.38;24.27;;;;;;;-1.00;61.10;100664.25;5091733;28;20173;-73
2021/03/09 05:20:31;;;;;;;49.40;23.83;;;;;;;-0.98;60.70;100675.44;5092056;28;20059;-73
2021/03/09 05:22:57;;;;;;;40.05;23.00;;;;;;;-0.93;60.61;100677.09;5093202;28;20048;-72
2021/03/09 05:25:24;;;;;;;42.67;22.75;;;;;;;-0.87;60.68;100679.56;5093015;28;20135;-73
2021/03/09 05:27:50;;;;;;;36.42;19.05;;;;;;;-0.79;60.96;100669.94;5093955;28;20051;-74
2021/03/09 05:30:20;;;;;;;39.25;20.80;;;;;;;-0.75;61.07;100666.38;5091248;28;20372;-74
2021/03/09 05:32:46;;;;;;;45.40;24.35;;;;;;;-0.64;60.59;100668.78;5089202;28;20055;-74
2021/03/09 05:35:16;;;;;;;46.90;26.13;;;;;;;-0.55;60.57;100667.75;5090591;28;20055;-73
2021/03/09 05:37:44;;;;;;;46.55;29.90;;;;;;;-0.51;60.77;100669.38;5088234;28;20154;-74
2021/03/09 05:40:11;;;;;;;58.10;31.20;;;;;;;-0.42;60.51;100669.19;5089887;28;20441;-72
2021/03/09 05:42:38;;;;;;;67.93;34.83;;;;;;;-0.33;60.41;100679.38;5089670;28;20069;-72
2021/03/09 05:45:07;;;;;;;65.00;34.60;;;;;;;-0.23;60.16;100675.72;5088462;28;20411;-73
2021/03/09 05:47:36;;;;;;;76.72;41.08;;;;;;;-0.17;60.39;100681.66;5090606;28;20090;-78
2021/03/09 05:50:04;;;;;;;67.38;34.80;;;;;;;-0.14;60.05;100674.66;5094336;28;20126;-73
2021/03/09 05:52:33;;;;;;;60.58;36.95;;;;;;;-0.09;60.23;100677.13;5092995;28;20050;-72
2021/03/09 05:55:00;;;;;;;80.70;41.75;;;;;;;-0.10;60.08;100685.84;5089199;28;20052;-70
2021/03/09 05:57:27;;;;;;;105.35;56.72;;;;;;;-0.10;60.34;100675.44;5088140;28;20051;-71
2021/03/09 05:59:56;;;;;;;158.40;84.18;;;;;;;-0.09;60.24;100680.63;5070455;28;20067;-72
2021/03/09 06:02:22;;;;;;;164.32;79.45;;;;;;;-0.02;60.50;100681.31;5099871;28;20043;-74
2021/03/09 06:04:49;;;;;;;74.93;42.63;;;;;;;0.09;60.34;100681.06;5106821;28;20107;-71
2021/03/09 06:07:17;;;;;;;122.97;64.28;;;;;;;0.20;59.92;100692.09;5109516;28;20104;-68
2021/03/09 06:09:45;;;;;;;131.07;70.35;;;;;;;0.28;59.83;100679.78;5108336;27;20047;-72
2021/03/09 06:12:15;;;;;;;149.95;83.35;;;;;;;0.37;59.86;100687.34;5118317;27;20091;-73
2021/03/09 06:14:43;;;;;;;157.85;80.35;;;;;;;0.47;59.48;100692.31;5128117;27;20074;-77
2021/03/09 06:17:14;;;;;;;145.30;77.70;;;;;;;0.54;59.73;100696.50;5125219;27;20053;-73
2021/03/09 06:19:45;;;;;;;132.07;67.55;;;;;;;0.61;59.35;100697.19;5124703;27;20051;-74
2021/03/09 06:22:14;;;;;;;114.55;63.83;;;;;;;0.79;59.38;100698.50;5127952;27;20232;-73
2021/03/09 06:24:41;;;;;;;108.80;59.17;;;;;;;0.93;58.99;100702.44;5125321;27;20044;-79
2021/03/09 06:27:24;;;;;;;119.32;62.92;;;;;;;1.07;59.16;100698.66;5124920;27;20063;-75
2021/03/09 06:29:51;;;;;;;118.47;62.15;;;;;;;1.24;58.60;100712.09;5124869;27;20050;-72
2021/03/09 06:32:17;;;;;;;101.60;57.60;;;;;;;1.37;58.77;100711.72;5123417;27;20655;-73
2021/03/09 06:34:44;;;;;;;111.30;61.08;;;;;;;1.45;58.27;100715.84;5124809;27;20043;-74
2021/03/09 06:37:13;;;;;;;118.03;65.90;;;;;;;1.53;58.20;100715.63;5124020;27;20076;-75
2021/03/09 06:39:51;;;;;;;105.22;61.10;;;;;;;1.68;58.12;100724.78;5124953;27;20684;-74
2021/03/09 06:42:20;;;;;;;159.63;80.60;;;;;;;1.76;58.01;100721.94;5126962;27;20101;-72
2021/03/09 06:44:53;;;;;;;144.80;69.88;;;;;;;1.89;58.25;100725.91;5122897;27;20456;-72
2021/03/09 06:47:38;;;;;;;93.47;49.63;;;;;;;1.98;58.20;100730.00;5123846;27;20049;-74
2021/03/09 06:50:07;;;;;;;92.68;51.60;;;;;;;2.02;57.60;100731.63;5103371;28;20047;-76
2021/03/09 06:52:34;;;;;;;82.63;41.72;;;;;;;2.03;57.76;100734.16;5116710;28;20042;-76
2021/03/09 06:55:01;;;;;;;92.57;44.20;;;;;;;2.09;57.64;100734.00;5096129;28;20067;-74
2021/03/09 06:57:27;;;;;;;75.28;39.08;;;;;;;2.18;57.84;100734.59;5100332;28;20040;-73
2021/03/09 06:59:56;;;;;;;89.18;45.00;;;;;;;2.25;57.53;100738.72;5096903;28;20123;-74
2021/03/09 07:02:23;;;;;;;81.57;43.40;;;;;;;2.32;57.24;100739.41;5097469;28;20108;-78
2021/03/09 07:04:51;;;;;;;71.65;36.45;;;;;;;2.45;57.16;100743.38;5100849;28;20043;-72
2021/03/09 07:07:28;;;;;;;55.90;29.13;;;;;;;2.64;57.08;100746.22;5095413;28;20044;-74
2021/03/09 07:09:59;;;;;;;34.60;19.55;;;;;;;2.76;56.49;100742.38;5098514;28;20070;-71
2021/03/09 07:12:26;;;;;;;28.48;17.23;;;;;;;2.84;56.47;100743.81;5101161;28;20043;-73
2021/03/09 07:14:54;;;;;;;25.08;11.15;;;;;;;2.73;56.33;100745.94;5097473;28;20047;-73
2021/03/09 07:17:26;;;;;;;21.23;11.57;;;;;;;2.63;56.80;100748.00;5097102;28;20233;-72
2021/03/09 07:19:54;;;;;;;21.42;11.30;;;;;;;2.80;56.59;100744.84;5099822;28;20043;-73
2021/03/09 07:22:23;;;;;;;28.42;12.32;;;;;;;2.98;56.00;100739.94;5100409;28;20063;-73
2021/03/09 07:25:01;;;;;;;24.23;11.52;;;;;;;3.23;55.57;100735.56;5098432;28;20048;-78
2021/03/09 07:27:37;;;;;;;23.00;11.70;;;;;;;3.41;54.77;100735.84;5101319;28;20046;-71
2021/03/09 07:30:07;;;;;;;25.15;11.02;;;;;;;3.59;54.68;100734.34;5101175;28;20047;-78
2021/03/09 07:32:33;;;;;;;20.08;9.50;;;;;;;3.74;54.13;100732.94;5100143;28;20103;-70
2021/03/09 07:35:01;;;;;;;17.15;8.63;;;;;;;3.78;53.97;100738.00;5098944;28;20139;-74
2021/03/09 07:37:28;;;;;;;22.30;8.90;;;;;;;3.86;53.70;100742.94;5103636;28;20055;-72
2021/03/09 07:39:57;;;;;;;25.48;11.35;;;;;;;3.98;53.43;100736.38;5100312;28;20491;-73
2021/03/09 07:42:24;;;;;;;22.77;11.63;;;;;;;4.05;52.86;100739.63;5100341;28;20043;-74
2021/03/09 07:44:50;;;;;;;19.58;10.13;;;;;;;4.09;52.79;100736.88;5097960;28;20576;-74
2021/03/09 07:47:19;;;;;;;20.55;10.85;;;;;;;4.18;52.54;100744.34;5098808;28;20629;-70
2021/03/09 07:49:47;;;;;;;25.35;14.30;;;;;;;4.29;52.29;100740.47;5095091;28;20054;-73
2021/03/09 07:52:18;;;;;;;27.63;14.13;;;;;;;4.34;52.33;100744.63;5095662;28;20108;-73
2021/03/09 07:55:18;;;;;;;26.85;14.43;;;;;;;4.45;52.14;100743.31;5093751;28;20173;-70
2021/03/09 07:57:45;;;;;;;21.55;10.82;;;;;;;4.55;51.46;100736.84;5099999;28;20471;-78
2021/03/09 08:00:13;;;;;;;21.27;10.23;;;;;;;4.53;51.26;100736.88;5099379;28;20039;-72
2021/03/09 08:02:56;;;;;;;24.05;12.18;;;;;;;4.51;51.65;100737.88;5100956;28;20414;-72
2021/03/09 08:05:25;;;;;;;20.42;11.15;;;;;;;4.65;50.96;100729.50;5096503;28;20076;-65
2021/03/09 08:07:58;;;;;;;27.83;12.95;;;;;;;4.77;50.71;100737.69;5079481;28;20055;-67
2021/03/09 08:10:39;;;;;;;22.33;10.88;;;;;;;4.96;50.40;100735.16;5078990;28;20105;-67
2021/03/09 08:13:23;;;;;;;22.38;10.32;;;;;;;5.11;50.08;100740.66;5080589;28;20067;-66
2021/03/09 08:15:50;;;;;;;23.63;14.75;;;;;;;5.18;49.58;100739.50;5091536;28;20047;-67
2021/03/09 08:18:47;;;;;;;22.05;10.93;;;;;;;5.26;49.68;100728.72;5100721;28;20048;-70
2021/03/09 08:21:15;;;;;;;19.35;9.18;;;;;;;5.43;49.04;100728.81;5080863;28;20052;-68
2021/03/09 08:23:58;;;;;;;13.63;8.15;;;;;;;5.64;48.81;100726.19;5105295;28;20044;-69
2021/03/09 08:26:51;;;;;;;13.13;7.13;;;;;;;5.83;48.17;100727.03;5097814;28;20483;-68
2021/03/09 08:29:37;;;;;;;19.42;8.98;;;;;;;5.96;47.78;100723.91;5035855;28;20041;-68
2021/03/09 08:32:30;;;;;;;16.30;10.27;;;;;;;5.97;47.74;100718.59;5034174;28;20049;-72
2021/03/09 08:35:38;;;;;;;14.27;7.53;;;;;;;5.71;48.29;100722.38;4997709;28;20046;-73
2021/03/09 08:38:21;;;;;;;12.40;6.75;;;;;;;5.71;48.12;100711.88;4997064;28;20073;-70
2021/03/09 08:41:10;;;;;;;11.00;6.72;;;;;;;5.57;48.41;100715.13;4997505;28;20046;-68
2021/03/09 08:43:39;;;;;;;11.32;5.13;;;;;;;5.24;48.30;100720.03;4997603;28;20140;-73
2021/03/09 08:46:07;;;;;;;9.48;4.70;;;;;;;4.76;48.88;100722.03;4999533;28;20490;-69
2021/03/09 08:49:03;;;;;;;14.30;6.90;;;;;;;4.56;49.60;100717.63;4997915;28;20046;-66
2021/03/09 08:51:48;;;;;;;14.87;6.33;;;;;;;4.78;49.14;100725.44;4996625;28;20133;-66
2021/03/09 08:54:40;;;;;;;11.10;4.45;;;;;;;4.99;48.55;100726.34;4999712;28;20052;-68
2021/03/09 08:57:14;;;;;;;10.05;3.72;;;;;;;5.08;47.98;100728.56;4998808;28;20137;-69
2021/03/09 08:59:43;;;;;;;13.45;3.75;;;;;;;4.85;47.83;100716.44;4999793;28;20089;-71
2021/03/09 09:02:12;;;;;;;8.98;5.32;;;;;;;4.56;47.98;100728.94;5001771;28;20046;-69
2021/03/09 09:04:41;;;;;;;9.02;4.78;;;;;;;4.38;47.91;100721.81;5019360;28;20090;-76
2021/03/09 09:07:22;;;;;;;5.72;2.97;;;;;;;4.42;47.57;100719.94;5075886;28;20048;-75
2021/03/09 09:09:49;;;;;;;6.63;2.47;;;;;;;4.33;46.71;100721.97;5080030;28;20056;-71
2021/03/09 09:12:34;;;;;;;6.95;2.78;;;;;;;4.58;46.85;100713.19;5104655;27;20100;-74
2021/03/09 09:15:13;;;;;;;5.63;2.45;;;;;;;4.87;45.93;100711.97;5121458;27;20063;-71
2021/03/09 09:17:42;;;;;;;5.97;3.05;;;;;;;5.21;45.48;100713.19;5103579;27;20051;-71
2021/03/09 09:20:13;;;;;;;5.80;2.78;;;;;;;5.35;44.78;100709.97;5122898;27;20084;-72
2021/03/09 09:22:43;;;;;;;4.90;1.88;;;;;;;5.20;44.67;100708.84;5123150;27;20163;-71
2021/03/09 09:25:11;;;;;;;4.07;2.00;;;;;;;5.05;44.56;100707.75;5118819;27;20084;-73
2021/03/09 09:27:40;;;;;;;4.32;1.20;;;;;;;5.02;44.13;100697.38;5108951;27;20035;-71
2021/03/09 09:30:08;;;;;;;2.55;1.92;;;;;;;5.01;43.98;100708.78;5099236;28;20081;-71
2021/03/09 09:32:49;;;;;;;6.05;2.15;;;;;;;5.20;43.47;100702.75;5100116;28;20074;-72
2021/03/09 09:35:16;;;;;;;5.32;2.28;;;;;;;5.10;41.62;100702.31;5102690;27;20051;-73
2021/03/09 09:37:51;;;;;;;3.67;1.90;;;;;;;5.03;42.05;100703.50;5102528;28;20139;-71
2021/03/09 09:40:19;;;;;;;4.30;1.63;;;;;;;5.17;42.11;100701.97;5097780;28;20135;-70
2021/03/09 09:43:11;;;;;;;3.53;1.92;;;;;;;5.50;41.44;100693.56;5098824;28;20043;-74
2021/03/09 09:45:42;;;;;;;4.40;2.03;;;;;;;5.78;41.34;100699.34;5015801;28;20042;-69
2021/03/09 09:48:11;;;;;;;4.13;1.25;;;;;;;5.96;40.67;100695.06;5016689;28;20053;-73
2021/03/09 09:50:43;;;;;;;2.95;1.15;;;;;;;7.00;39.15;100705.75;5017118;28;20053;-71
2021/03/09 09:53:10;;;;;;;0.57;0.57;;;;;;;7.96;37.41;100692.88;5015859;28;20132;-71
2021/03/09 09:55:37;;;;;;;4.00;1.05;;;;;;;8.64;36.23;100691.78;5013458;28;20046;-71
2021/03/09 09:58:06;;;;;;;7.07;2.85;;;;;;;8.31;35.63;100698.00;5013475;28;20648;-72
2021/03/09 10:00:33;;;;;;;7.38;3.22;;;;;;;7.47;37.39;100702.50;5014637;28;20065;-75
2021/03/09 10:03:07;;;;;;;4.85;2.08;;;;;;;6.79;38.61;100697.19;5011528;28;20051;-71
2021/03/09 10:05:36;;;;;;;3.55;2.92;;;;;;;6.38;39.21;100700.06;5016774;28;20042;-70
2021/03/09 10:08:04;;;;;;;6.50;2.90;;;;;;;6.21;37.86;100694.75;5013568;28;20111;-72
2021/03/09 10:10:31;;;;;;;4.28;2.53;;;;;;;6.24;38.32;100690.22;5015240;28;20511;-71
2021/03/09 10:12:58;;;;;;;4.47;2.17;;;;;;;6.55;38.15;100693.16;5014985;28;20094;-68
2021/03/09 10:15:24;;;;;;;3.97;2.65;;;;;;;6.82;36.67;100691.78;5012999;28;20118;-68
2021/03/09 10:18:03;;;;;;;5.20;2.53;;;;;;;6.20;35.55;100691.28;5015918;28;20041;-70
2021/03/09 10:20:29;;;;;;;5.80;1.92;;;;;;;5.68;35.94;100685.81;5017620;28;20057;-68
2021/03/09 10:23:01;;;;;;;4.70;3.42;;;;;;;5.41;36.79;100693.13;5082733;28;20047;-68
2021/03/09 10:25:27;;;;;;;6.25;2.80;;;;;;;5.25;37.29;100690.31;5102017;28;20108;-66
2021/03/09 10:28:02;;;;;;;6.13;2.97;;;;;;;5.40;37.84;100689.66;5107806;28;20050;-70
2021/03/09 10:30:36;;;;;;;7.32;3.17;;;;;;;5.45;38.09;100690.28;5086384;28;20062;-71
2021/03/09 10:33:11;;;;;;;4.28;2.30;;;;;;;5.53;38.19;100687.34;5106260;28;20189;-71
2021/03/09 10:36:01;;;;;;;3.10;2.15;;;;;;;5.67;38.02;100678.84;5108748;27;20107;-71
2021/03/09 10:38:29;;;;;;;3.45;2.00;;;;;;;6.15;37.32;100682.78;5121517;27;20107;-72
2021/03/09 10:40:55;;;;;;;4.57;2.53;;;;;;;6.97;36.16;100687.56;5123270;27;20167;-71
2021/03/09 10:43:46;;;;;;;3.50;2.33;;;;;;;7.76;35.27;100683.47;5118281;27;20093;-75
2021/03/09 10:46:13;;;;;;;3.38;2.33;;;;;;;8.38;33.89;100673.88;5118302;27;20257;-72
2021/03/09 10:48:41;;;;;;;4.50;2.53;;;;;;;8.72;32.92;100663.25;5115158;27;20065;-73
2021/03/09 10:51:20;;;;;;;3.60;2.38;;;;;;;8.77;32.38;100659.41;5079321;28;20050;-68
2021/03/09 10:53:47;;;;;;;4.28;2.08;;;;;;;8.91;32.76;100661.25;5081073;28;20121;-73
2021/03/09 10:56:14;;;;;;;5.78;2.35;;;;;;;9.57;31.85;100659.03;5098137;28;20134;-70
2021/03/09 10:58:41;;;;;;;5.90;2.83;;;;;;;9.84;31.52;100660.88;5094357;28;20063;-72
2021/03/09 11:01:10;;;;;;;5.05;2.72;;;;;;;9.80;31.01;100656.75;5098557;28;20043;-70
2021/03/09 11:03:37;;;;;;;4.65;2.08;;;;;;;9.76;30.76;100653.47;5100565;28;20048;-75
2021/03/09 11:06:04;;;;;;;5.00;2.50;;;;;;;9.36;31.07;100662.06;5106628;27;20039;-73
2021/03/09 11:08:30;;;;;;;6.45;2.55;;;;;;;8.75;31.50;100657.78;5120573;27;20102;-73
2021/03/09 11:10:57;;;;;;;4.15;2.70;;;;;;;8.47;32.36;100654.13;5119568;27;20059;-78
2021/03/09 11:13:23;;;;;;;5.70;2.45;;;;;;;8.31;32.67;100651.47;5098512;27;20119;-71
2021/03/09 11:15:50;;;;;;;7.70;3.03;;;;;;;8.27;32.41;100649.97;5097936;28;20124;-71
2021/03/09 11:18:17;;;;;;;5.10;3.22;;;;;;;7.80;32.54;100646.41;5101192;28;20267;-72
2021/03/09 11:20:44;;;;;;;7.53;3.28;;;;;;;7.55;32.99;100653.94;5097798;28;20484;-72
2021/03/09 11:23:11;;;;;;;8.07;3.28;;;;;;;7.28;33.28;100649.19;5100824;28;20043;-76
2021/03/09 11:25:37;;;;;;;4.25;2.83;;;;;;;6.93;33.57;100651.84;5099156;28;20636;-77
2021/03/09 11:28:05;;;;;;;6.45;2.63;;;;;;;6.68;33.97;100653.09;5098509;28;20039;-77
2021/03/09 11:30:32;;;;;;;4.47;3.28;;;;;;;6.58;34.20;100651.84;5101594;28;20196;-75